createdAt,value
2022-10-23T00:00:18.410Z,16.43
2022-10-23T00:02:45.566Z,16.52
2022-10-23T00:05:12.596Z,16.52
2022-10-23T00:07:39.418Z,16.49
2022-10-23T00:10:07.071Z,16.39
2022-10-23T00:12:35.241Z,16.44
2022-10-23T00:15:02.060Z,16.48
2022-10-23T00:17:32.712Z,16.52
2022-10-23T00:19:59.512Z,16.50
2022-10-23T00:22:26.323Z,16.49
2022-10-23T00:24:53.383Z,16.53
2022-10-23T00:27:20.208Z,16.65
2022-10-23T00:29:48.340Z,16.56
2022-10-23T00:32:15.201Z,16.57
2022-10-23T00:34:42.012Z,16.64
2022-10-23T00:37:08.797Z,16.62
2022-10-23T00:39:35.736Z,16.55
2022-10-23T00:42:02.494Z,16.49
2022-10-23T00:45:08.777Z,16.56
2022-10-23T00:47:36.952Z,16.53
2022-10-23T00:50:04.859Z,16.50
2022-10-23T00:52:33.633Z,16.39
2022-10-23T00:55:00.570Z,16.41
2022-10-23T00:59:54.307Z,16.35
2022-10-23T01:02:21.399Z,16.38
2022-10-23T01:04:49.631Z,16.43
2022-10-23T01:07:22.254Z,16.40
2022-10-23T01:09:58.919Z,16.34
2022-10-23T01:12:34.943Z,16.48
2022-10-23T01:15:10.345Z,16.33
2022-10-23T01:17:44.581Z,16.43
2022-10-23T01:20:25.403Z,16.36
2022-10-23T01:23:14.757Z,16.46
2022-10-23T01:25:58.932Z,16.51
2022-10-23T01:28:29.837Z,16.54
2022-10-23T01:30:58.669Z,16.49
2022-10-23T01:33:31.599Z,16.28
2022-10-23T01:36:02.678Z,16.38
2022-10-23T01:38:38.991Z,16.51
2022-10-23T01:41:11.871Z,16.63
2022-10-23T01:43:44.264Z,16.55
2022-10-23T01:46:14.312Z,16.45
2022-10-23T01:48:46.151Z,16.57
2022-10-23T01:51:15.347Z,16.38
2022-10-23T01:53:44.892Z,16.51
2022-10-23T01:56:15.549Z,16.64
2022-10-23T01:58:48.197Z,16.58
2022-10-23T02:01:18.432Z,16.54
2022-10-23T02:03:46.536Z,16.45
2022-10-23T02:06:13.511Z,16.46
2022-10-23T02:08:40.515Z,16.64
2022-10-23T02:11:09.008Z,16.61
2022-10-23T02:13:42.707Z,16.62
2022-10-23T02:16:19.318Z,16.37
2022-10-23T02:18:54.341Z,16.56
2022-10-23T02:21:28.256Z,16.42
2022-10-23T02:23:59.725Z,16.53
2022-10-23T02:26:30.797Z,16.30
2022-10-23T02:29:03.402Z,16.47
2022-10-23T02:31:32.238Z,16.31
2022-10-23T02:33:59.102Z,16.47
2022-10-23T02:36:25.899Z,16.33
2022-10-23T02:38:52.664Z,16.47
2022-10-23T02:41:35.807Z,16.48
2022-10-23T02:44:21.305Z,16.47
2022-10-23T02:46:56.182Z,16.24
2022-10-23T02:49:28.564Z,16.50
2022-10-23T02:52:06.496Z,16.48
2022-10-23T02:54:48.575Z,16.47
2022-10-23T02:57:22.853Z,16.28
2022-10-23T02:59:59.368Z,16.49
2022-10-23T03:02:35.859Z,16.35
2022-10-23T03:05:04.906Z,16.53
2022-10-23T03:07:32.175Z,16.45
2022-10-23T03:09:58.914Z,16.46
2022-10-23T03:12:25.756Z,16.38
2022-10-23T03:14:52.837Z,16.42
2022-10-23T03:17:19.751Z,16.21
2022-10-23T03:19:47.919Z,16.40
2022-10-23T03:22:14.718Z,16.21
2022-10-23T03:24:41.527Z,16.26
2022-10-23T03:27:08.298Z,16.23
2022-10-23T03:29:35.059Z,16.04
2022-10-23T03:32:01.827Z,16.08
2022-10-23T03:34:28.651Z,15.98
2022-10-23T03:36:56.832Z,16.10
2022-10-23T03:39:23.608Z,16.20
2022-10-23T03:41:50.373Z,16.16
2022-10-23T03:44:17.626Z,16.06
2022-10-23T03:46:44.951Z,16.19
2022-10-23T03:49:11.897Z,16.25
2022-10-23T03:51:41.709Z,16.12
2022-10-23T03:54:09.951Z,16.27
2022-10-23T03:56:36.897Z,16.15
2022-10-23T03:59:04.002Z,16.30
2022-10-23T04:01:30.971Z,16.13
2022-10-23T04:03:57.879Z,16.26
2022-10-23T04:06:24.643Z,16.28
2022-10-23T04:08:51.564Z,16.30
2022-10-23T04:11:19.710Z,16.23
2022-10-23T04:13:46.623Z,16.27
2022-10-23T04:16:13.494Z,16.16
2022-10-23T04:18:40.968Z,16.06
2022-10-23T04:21:08.009Z,16.27
2022-10-23T04:23:34.854Z,16.19
2022-10-23T04:26:01.968Z,16.16
2022-10-23T04:28:30.099Z,16.12
2022-10-23T04:30:56.998Z,16.24
2022-10-23T04:33:25.098Z,16.36
2022-10-23T04:35:51.843Z,16.29
2022-10-23T04:38:18.702Z,16.32
2022-10-23T04:40:45.440Z,16.29
2022-10-23T04:43:12.275Z,16.32
2022-10-23T04:45:40.579Z,16.28
2022-10-23T04:48:07.389Z,16.08
2022-10-23T04:50:34.159Z,16.24
2022-10-23T04:53:01.040Z,16.25
2022-10-23T04:55:27.849Z,16.36
2022-10-23T04:57:54.679Z,16.30
2022-10-23T05:00:21.574Z,16.28
2022-10-23T05:02:49.728Z,16.07
2022-10-23T05:05:16.841Z,16.14
2022-10-23T05:07:43.964Z,16.24
2022-10-23T05:10:11.107Z,15.86
2022-10-23T05:12:37.912Z,15.93
2022-10-23T05:15:05.679Z,16.13
2022-10-23T05:17:36.888Z,16.20
2022-10-23T05:20:09.759Z,16.10
2022-10-23T05:22:39.838Z,16.04
2022-10-23T05:25:07.234Z,16.18
2022-10-23T05:27:34.076Z,16.04
2022-10-23T05:30:02.495Z,15.90
2022-10-23T05:32:32.273Z,16.02
2022-10-23T05:35:01.112Z,15.98
2022-10-23T05:37:29.574Z,16.16
2022-10-23T05:39:57.140Z,16.10
2022-10-23T05:42:24.081Z,16.22
2022-10-23T05:44:50.842Z,16.07
2022-10-23T05:47:17.599Z,16.13
2022-10-23T05:49:44.349Z,16.09
2022-10-23T05:52:11.726Z,16.25
2022-10-23T05:54:39.991Z,16.25
2022-10-23T05:57:06.888Z,16.27
2022-10-23T05:59:33.706Z,16.30
2022-10-23T06:02:00.584Z,16.31
2022-10-23T06:04:27.504Z,16.26
2022-10-23T06:06:54.329Z,16.41
2022-10-23T06:09:21.142Z,16.31
2022-10-23T06:11:49.280Z,16.27
2022-10-23T06:14:16.070Z,16.32
2022-10-23T06:16:42.885Z,16.48
2022-10-23T06:19:11.205Z,16.43
2022-10-23T06:21:38.495Z,16.34
2022-10-23T06:24:06.269Z,16.49
2022-10-23T06:26:33.924Z,16.50
2022-10-23T06:29:02.093Z,16.47
2022-10-23T06:31:29.024Z,16.23
2022-10-23T06:33:56.369Z,16.49
2022-10-23T06:36:23.242Z,16.58
2022-10-23T06:38:50.384Z,16.45
2022-10-23T06:41:18.829Z,16.51
2022-10-23T06:43:47.883Z,16.60
2022-10-23T06:46:17.244Z,16.65
2022-10-23T06:48:44.728Z,16.62
2022-10-23T06:51:13.346Z,16.57
2022-10-23T06:53:40.631Z,16.65
2022-10-23T06:56:08.426Z,16.77
2022-10-23T06:58:36.612Z,16.59
2022-10-23T07:01:05.465Z,16.87
2022-10-23T07:03:34.730Z,16.59
2022-10-23T07:06:02.280Z,16.42
2022-10-23T07:08:29.424Z,16.80
2022-10-23T07:10:56.842Z,16.74
2022-10-23T07:13:24.991Z,17.00
2022-10-23T07:15:51.784Z,16.81
2022-10-23T07:18:19.486Z,16.99
2022-10-23T07:20:49.524Z,17.21
2022-10-23T07:23:16.638Z,16.99
2022-10-23T07:25:43.464Z,17.20
2022-10-23T07:28:10.205Z,17.13
2022-10-23T07:30:37.021Z,17.15
2022-10-23T07:33:03.975Z,17.05
2022-10-23T07:35:33.052Z,17.30
2022-10-23T07:38:03.830Z,17.19
2022-10-23T07:40:30.583Z,17.20
2022-10-23T07:42:57.337Z,17.22
2022-10-23T07:45:24.047Z,17.15
2022-10-23T07:47:51.947Z,17.17
2022-10-23T07:50:18.889Z,17.18
2022-10-23T07:52:45.781Z,17.12
2022-10-23T07:55:14.584Z,17.15
2022-10-23T07:57:41.418Z,17.15
2022-10-23T08:00:11.226Z,17.00
2022-10-23T08:02:38.001Z,17.24
2022-10-23T08:05:05.368Z,17.17
2022-10-23T08:07:32.299Z,17.23
2022-10-23T08:09:59.067Z,17.30
2022-10-23T08:12:27.184Z,17.31
2022-10-23T08:14:54.064Z,17.19
2022-10-23T08:17:22.230Z,17.27
2022-10-23T08:19:49.847Z,17.29
2022-10-23T08:22:16.771Z,17.27
2022-10-23T08:24:43.808Z,17.35
2022-10-23T08:27:10.805Z,17.38
2022-10-23T08:29:39.056Z,17.43
2022-10-23T08:32:05.956Z,17.43
2022-10-23T08:34:32.768Z,17.43
2022-10-23T08:36:59.619Z,17.45
2022-10-23T08:39:26.959Z,17.34
2022-10-23T08:41:53.856Z,17.43
2022-10-23T08:44:26.230Z,17.63
2022-10-23T08:47:03.707Z,17.66
2022-10-23T08:49:40.360Z,17.52
2022-10-23T08:52:15.770Z,17.49
2022-10-23T08:54:53.040Z,17.50
2022-10-23T08:57:23.585Z,17.52
2022-10-23T08:59:54.891Z,17.13
2022-10-23T09:02:25.964Z,17.14
2022-10-23T09:04:54.390Z,16.96
2022-10-23T09:07:34.045Z,17.17
2022-10-23T09:10:20.685Z,17.48
2022-10-23T09:12:47.620Z,17.28
2022-10-23T09:15:23.222Z,17.20
2022-10-23T09:17:57.736Z,17.40
2022-10-23T09:20:26.765Z,17.27
2022-10-23T09:22:56.220Z,17.51
2022-10-23T09:25:25.657Z,17.30
2022-10-23T09:27:56.712Z,17.44
2022-10-23T09:30:30.452Z,17.45
2022-10-23T09:32:58.864Z,17.59
2022-10-23T09:35:28.424Z,17.66
2022-10-23T09:37:55.733Z,17.69
2022-10-23T09:40:30.479Z,17.71
2022-10-23T09:42:59.987Z,17.61
2022-10-23T09:45:30.293Z,17.97
2022-10-23T09:48:12.643Z,17.98
2022-10-23T09:50:47.796Z,17.88
2022-10-23T09:53:18.915Z,17.91
2022-10-23T09:55:52.858Z,17.98
2022-10-23T09:58:25.205Z,18.15
2022-10-23T10:00:54.735Z,18.20
2022-10-23T10:03:24.634Z,18.50
2022-10-23T10:05:57.693Z,18.38
2022-10-23T10:08:30.030Z,18.49
2022-10-23T10:11:01.753Z,18.54
2022-10-23T10:14:01.323Z,18.77
2022-10-23T10:19:18.857Z,18.76
2022-10-23T10:21:53.111Z,18.61
2022-10-23T10:24:25.496Z,18.94
2022-10-23T10:26:59.793Z,19.01
2022-10-23T10:29:44.119Z,19.15
2022-10-23T10:32:21.728Z,19.15
2022-10-23T10:34:55.311Z,19.28
2022-10-23T10:37:32.149Z,19.48
2022-10-23T10:40:02.828Z,19.67
2022-10-23T10:43:08.589Z,19.60
2022-10-23T10:45:56.337Z,19.57
2022-10-23T11:15:47.707Z,20.26
2022-10-23T11:18:24.091Z,20.48
2022-10-23T11:20:54.229Z,20.66
2022-10-23T11:23:49.611Z,20.77
2022-10-23T11:26:30.993Z,20.45
2022-10-23T11:32:10.653Z,20.76
2022-10-23T11:34:53.753Z,21.07
2022-10-23T11:37:22.410Z,20.90
2022-10-23T11:40:03.226Z,20.82
2022-10-23T11:42:33.215Z,20.70
2022-10-23T11:45:00.393Z,20.87
2022-10-23T11:47:39.001Z,20.90
2022-10-23T11:50:17.363Z,21.25
2022-10-23T11:53:14.676Z,21.39
2022-10-23T11:55:57.051Z,21.37
2022-10-23T11:58:31.735Z,21.26
2022-10-23T12:01:04.300Z,21.50
2022-10-23T12:03:41.760Z,21.45
2022-10-23T12:06:23.727Z,21.24
2022-10-23T12:11:44.993Z,21.29
2022-10-23T12:14:29.473Z,21.21
2022-10-23T12:16:56.818Z,21.34
2022-10-23T12:25:00.743Z,21.60
2022-10-23T12:30:39.450Z,21.82
2022-10-23T13:06:43.329Z,22.11
2022-10-23T13:09:23.734Z,22.32
2022-10-23T13:12:02.229Z,22.27
2022-10-23T14:25:12.460Z,21.52
2022-10-23T14:27:49.832Z,21.64
2022-10-23T14:39:22.528Z,21.55
2022-10-23T14:45:02.105Z,21.49
2022-10-23T14:47:29.384Z,21.59
2022-10-23T14:49:56.709Z,21.51
2022-10-23T14:52:24.404Z,21.60
2022-10-23T14:55:13.613Z,21.71
2022-10-23T14:57:42.075Z,21.72
2022-10-23T15:00:11.524Z,21.88
2022-10-23T15:02:38.412Z,21.86
2022-10-23T15:07:56.372Z,22.08
2022-10-23T15:10:39.263Z,22.04
2022-10-23T15:22:20.872Z,21.83
2022-10-23T15:24:49.105Z,21.78
2022-10-23T15:39:33.715Z,21.95
2022-10-23T15:42:03.113Z,21.81
2022-10-23T15:45:01.495Z,21.70
2022-10-23T15:47:28.314Z,21.93
2022-10-23T15:49:55.375Z,21.73
2022-10-23T15:52:54.829Z,21.57
2022-10-23T15:55:22.002Z,21.42
2022-10-23T15:57:50.270Z,21.28
2022-10-23T16:00:20.375Z,21.26
2022-10-23T16:02:47.786Z,21.23
2022-10-23T16:05:17.402Z,21.15
2022-10-23T16:07:44.188Z,21.20
2022-10-23T16:10:14.513Z,21.19
2022-10-23T16:12:41.842Z,21.19
2022-10-23T16:15:10.858Z,21.13
2022-10-23T16:17:38.062Z,21.10
2022-10-23T16:20:05.567Z,21.03
2022-10-23T16:22:32.375Z,20.98
2022-10-23T16:24:59.168Z,21.04
2022-10-23T16:27:26.823Z,20.96
2022-10-23T16:29:53.847Z,20.87
2022-10-23T16:35:15.587Z,20.92
2022-10-23T16:37:42.530Z,20.99
2022-10-23T16:40:10.688Z,21.12
2022-10-23T16:42:37.939Z,20.93
2022-10-23T16:45:05.604Z,20.58
2022-10-23T16:47:32.653Z,20.49
2022-10-23T16:49:59.763Z,20.52
2022-10-23T16:52:28.961Z,20.44
2022-10-23T16:54:55.944Z,20.27
2022-10-23T16:57:22.753Z,20.10
2022-10-23T16:59:49.704Z,19.97
2022-10-23T17:02:16.662Z,19.52
2022-10-23T17:04:43.697Z,19.48
2022-10-23T17:07:13.123Z,19.52
2022-10-23T17:09:44.264Z,19.60
2022-10-23T17:12:11.036Z,19.41
2022-10-23T17:14:38.779Z,19.28
2022-10-23T17:17:06.836Z,19.35
2022-10-23T17:19:44.550Z,19.47
2022-10-23T17:22:13.312Z,19.59
2022-10-23T17:24:44.214Z,19.59
2022-10-23T17:27:13.178Z,19.59
2022-10-23T17:29:40.007Z,19.51
2022-10-23T17:32:07.308Z,19.54
2022-10-23T17:34:34.116Z,19.56
2022-10-23T17:37:00.971Z,19.42
2022-10-23T17:39:29.586Z,19.16
2022-10-23T17:41:58.553Z,19.22
2022-10-23T17:44:25.504Z,19.22
2022-10-23T17:46:53.791Z,19.36
2022-10-23T17:49:21.307Z,19.46
2022-10-23T17:51:51.688Z,19.42
2022-10-23T17:54:18.435Z,19.32
2022-10-23T17:56:45.230Z,19.29
2022-10-23T17:59:16.143Z,19.15
2022-10-23T18:01:49.529Z,18.95
2022-10-23T18:04:18.118Z,18.86
2022-10-23T18:06:49.006Z,18.72
2022-10-23T18:09:16.250Z,18.69
2022-10-23T18:11:48.194Z,18.58
2022-10-23T18:14:18.234Z,18.47
2022-10-23T18:16:45.891Z,18.36
2022-10-23T18:19:13.510Z,18.24
2022-10-23T18:21:40.634Z,18.20
2022-10-23T18:24:07.670Z,18.13
2022-10-23T18:26:35.259Z,18.10
2022-10-23T18:29:04.991Z,18.07
2022-10-23T18:31:34.148Z,18.02
2022-10-23T18:34:04.322Z,17.89
2022-10-23T18:36:33.621Z,17.87
2022-10-23T18:39:01.016Z,17.85
2022-10-23T18:41:32.480Z,17.85
2022-10-23T18:43:59.399Z,17.74
2022-10-23T18:46:26.215Z,17.70
2022-10-23T18:48:54.480Z,17.65
2022-10-23T18:51:24.001Z,17.65
2022-10-23T18:53:51.148Z,17.59
2022-10-23T18:56:23.516Z,17.46
2022-10-23T18:58:50.659Z,17.46
2022-10-23T19:01:18.532Z,17.48
2022-10-23T19:03:45.686Z,17.54
2022-10-23T19:06:14.462Z,17.56
2022-10-23T19:08:42.779Z,17.73
2022-10-23T19:11:11.760Z,17.80
2022-10-23T19:13:40.359Z,17.78
2022-10-23T19:16:12.845Z,17.87
2022-10-23T19:18:42.073Z,17.96
2022-10-23T19:21:09.150Z,17.94
2022-10-23T19:23:39.697Z,17.83
2022-10-23T19:26:09.026Z,17.91
2022-10-23T19:28:37.775Z,18.00
2022-10-23T19:31:05.625Z,17.98
2022-10-23T19:33:32.635Z,17.93
2022-10-23T19:36:03.664Z,17.80
2022-10-23T19:38:32.841Z,17.93
2022-10-23T19:41:01.189Z,17.97
2022-10-23T19:43:28.109Z,17.82
2022-10-23T19:45:54.854Z,17.81
2022-10-23T19:48:21.641Z,17.82
2022-10-23T19:50:48.433Z,17.80
2022-10-23T19:53:16.902Z,17.81
2022-10-23T19:55:43.757Z,17.70
2022-10-23T19:58:12.014Z,17.73
2022-10-23T20:00:39.338Z,17.71
2022-10-23T20:03:06.128Z,17.68
2022-10-23T20:05:33.066Z,17.69
2022-10-23T20:08:00.121Z,17.56
2022-10-23T20:10:26.952Z,17.60
2022-10-23T20:13:02.388Z,17.62
2022-10-23T20:15:41.847Z,17.60
2022-10-23T20:18:08.680Z,17.67
2022-10-23T20:20:40.144Z,17.65
2022-10-23T20:23:06.911Z,17.55
2022-10-23T20:25:33.705Z,17.58
2022-10-23T20:28:00.432Z,17.58
2022-10-23T20:30:27.317Z,17.54
2022-10-23T20:32:56.002Z,17.47
2022-10-23T20:35:22.786Z,17.42
2022-10-23T20:37:49.571Z,17.57
2022-10-23T20:40:16.508Z,17.56
2022-10-23T20:42:43.258Z,17.50
2022-10-23T20:45:10.850Z,17.56
2022-10-23T20:47:37.650Z,17.80
2022-10-23T20:50:08.655Z,17.82
2022-10-23T20:52:35.685Z,17.81
2022-10-23T20:55:02.638Z,17.96
2022-10-23T20:57:29.480Z,17.82
2022-10-23T20:59:56.279Z,17.91
2022-10-23T21:02:23.149Z,18.05
2022-10-23T21:04:50.494Z,18.03
2022-10-23T21:07:18.632Z,18.00
2022-10-23T21:09:45.571Z,18.04
2022-10-23T21:12:12.508Z,18.09
2022-10-23T21:14:39.237Z,18.15
2022-10-23T21:17:08.352Z,18.20
2022-10-23T21:19:35.306Z,18.31
2022-10-23T21:22:02.068Z,18.20
2022-10-23T21:24:30.229Z,18.26
2022-10-23T21:26:56.985Z,18.20
2022-10-23T21:29:23.793Z,18.38
2022-10-23T21:31:54.928Z,18.31
2022-10-23T21:34:21.868Z,18.15
2022-10-23T21:37:11.266Z,18.15
2022-10-23T21:39:36.820Z,18.03
2022-10-23T21:42:03.964Z,17.81
2022-10-23T21:44:30.776Z,17.82
2022-10-23T21:46:57.940Z,17.86
2022-10-23T21:49:24.713Z,17.75
2022-10-23T21:51:51.509Z,17.73
2022-10-23T21:54:18.282Z,17.79
2022-10-23T21:56:48.555Z,17.87
2022-10-23T21:59:17.516Z,17.92
2022-10-23T22:01:45.886Z,17.95
2022-10-23T22:04:14.376Z,18.15
2022-10-23T22:06:41.978Z,18.23
2022-10-23T22:09:09.404Z,18.19
2022-10-23T22:11:36.255Z,18.16
2022-10-23T22:14:04.814Z,18.12
2022-10-23T22:16:31.660Z,18.00
2022-10-23T22:18:58.516Z,18.08
2022-10-23T22:21:28.494Z,18.10
2022-10-23T22:23:57.320Z,18.05
2022-10-23T22:26:26.529Z,18.00
2022-10-23T22:28:55.662Z,17.89
2022-10-23T22:31:25.831Z,18.13
2022-10-23T22:33:53.556Z,18.15
2022-10-23T22:36:21.040Z,18.03
2022-10-23T22:38:48.215Z,18.01
2022-10-23T22:41:15.093Z,18.10
2022-10-23T22:43:42.011Z,17.99
2022-10-23T22:46:10.552Z,18.11
2022-10-23T22:48:39.054Z,18.08
2022-10-23T22:51:08.961Z,18.25
2022-10-23T22:53:36.425Z,18.19
2022-10-23T22:56:06.673Z,18.14
2022-10-23T22:58:33.524Z,18.18
2022-10-23T23:01:04.429Z,18.26
2022-10-23T23:03:31.299Z,18.09
2022-10-23T23:05:59.442Z,18.07
2022-10-23T23:08:26.656Z,18.13
2022-10-23T23:10:54.242Z,18.19
2022-10-23T23:13:20.999Z,18.22
2022-10-23T23:15:47.931Z,18.33
2022-10-23T23:18:14.844Z,18.27
2022-10-23T23:20:41.590Z,18.30
2022-10-23T23:23:11.740Z,18.32
2022-10-23T23:25:41.343Z,18.29
2022-10-23T23:28:08.434Z,18.25
2022-10-23T23:30:35.220Z,18.30
2022-10-23T23:33:02.002Z,18.45
2022-10-23T23:35:29.467Z,18.59
2022-10-23T23:37:56.638Z,18.56
2022-10-23T23:40:24.831Z,18.63
2022-10-23T23:42:51.613Z,18.72
2022-10-23T23:45:18.420Z,18.69
2022-10-23T23:47:45.472Z,18.73
2022-10-23T23:50:13.028Z,18.75
2022-10-23T23:52:39.829Z,18.77
2022-10-23T23:55:07.335Z,18.72
2022-10-23T23:57:35.529Z,18.70
